Hovedside
METAR-TAF:

METAR-TAF

Lufthavner :

Værøy helikopterhavn. Tabbisodden

Værøy, Norge

breddegrad: 67-39-16N, lengdegrad: 12-43-37E, høyde over havet: 5 m

Gjeldene værobservasjon

Denne rapporten ble laget for 43 minutter siden, klokken 13:50 UTC
Vind 18 kt fra Sørvest med vindkast opp mot 31 kt, skiftende mellom Sør og Vest
Temperatur 6°C
Luftfuktighet 81%
Trykk 995 hPa
Sikt: 9000 m
Få skyer i en høyde av 1000 ft
Brutte skyer i en høyde av 4500 ft
regnbyger

METAR: ENVR 201350Z 23018G31KT 190V270 9000 SHRA FEW010 BKN045 06/03 Q0995

Tid: 15:33 (14:33 UTC)


TAF: fraværende

Værobservasjoner og værvarsel for over 4000 flyplasser (METAR- og TAF-rapporter).

Tilgjengelige stasjoner er representert av de røde og gule prikkene på kartet.

Hold musepekeren over prikken for å se navnet på stasjonen.

Klikk så for å se værobservasjoner og -varsler.

For å forandre kartet kan du klikke på den grønne knappen med svart kryss for å zoome inn, på den grønne knappen med strek for å zoome ut, eller på de grønne pilene for å se tilstøtende kart.


METAR-TAF: